Time;durP1;ratioP1;P1;durP2;ratioP2;P2;SDS_P1;SDS_P2;PMS_P1;PMS_P2;Temp;Humidity;BMP_temperature;BMP_pressure;BME280_temperature;BME280_humidity;BME280_pressure;Samples;Min_cycle;Max_cycle;Signal;HPM_P1;HPM_P2
2023/06/09 00:01:53;;;;;;;1999.90;999.90;;;;;;;15.54;100.00;97609.22;5070376;28;20036;-74
2023/06/09 00:04:23;;;;;;;1999.90;999.90;;;;;;;15.54;100.00;97610.03;5052500;28;20029;-76
2023/06/09 00:06:51;;;;;;;1999.90;999.90;;;;;;;15.53;100.00;97621.41;5070348;28;20029;-75
2023/06/09 00:09:17;;;;;;;1999.90;999.90;;;;;;;15.54;100.00;97614.75;5052262;28;20111;-75
2023/06/09 00:11:43;;;;;;;1999.90;999.90;;;;;;;15.67;100.00;97613.66;5052251;28;20068;-76
2023/06/09 00:14:08;;;;;;;1999.90;999.90;;;;;;;15.65;100.00;97604.94;5069854;28;20060;-75
2023/06/09 00:16:33;;;;;;;1999.90;999.90;;;;;;;15.60;100.00;97621.66;5052357;28;20454;-75
2023/06/09 00:19:03;;;;;;;1999.90;999.90;;;;;;;15.67;100.00;97616.44;5070284;28;20051;-74
2023/06/09 00:21:29;;;;;;;1999.90;999.90;;;;;;;15.72;100.00;97616.25;5070282;28;20016;-74
2023/06/09 00:23:55;;;;;;;1999.90;999.90;;;;;;;15.71;100.00;97609.09;5070499;28;20029;-75
2023/06/09 00:26:21;;;;;;;1999.90;999.90;;;;;;;15.74;100.00;97611.19;5071151;28;20036;-75
2023/06/09 00:28:46;;;;;;;1999.90;999.90;;;;;;;15.80;100.00;97601.56;5070604;28;20029;-75
2023/06/09 00:31:12;;;;;;;1999.90;999.90;;;;;;;15.88;100.00;97605.41;5052601;28;20047;-75
2023/06/09 00:33:37;;;;;;;1999.90;999.90;;;;;;;15.83;100.00;97589.03;5052289;28;20028;-75
2023/06/09 00:36:02;;;;;;;1999.90;999.90;;;;;;;15.81;100.00;97589.41;5070353;28;20021;-75
2023/06/09 00:38:28;;;;;;;1999.90;999.90;;;;;;;15.68;100.00;97598.75;5052191;28;20021;-76
2023/06/09 00:40:53;;;;;;;1999.90;999.90;;;;;;;15.68;100.00;97587.72;5070133;28;20111;-75
2023/06/09 00:43:19;;;;;;;1999.90;999.90;;;;;;;15.62;100.00;97583.56;5070288;28;20500;-75
2023/06/09 00:45:44;;;;;;;1999.90;999.90;;;;;;;15.71;100.00;97580.72;5070100;28;20145;-76
2023/06/09 00:48:11;;;;;;;1999.90;999.90;;;;;;;15.73;100.00;97581.19;5052065;28;20025;-76
2023/06/09 00:50:38;;;;;;;1999.90;999.90;;;;;;;15.72;100.00;97590.63;5069761;28;20031;-75
2023/06/09 00:53:04;;;;;;;1999.90;999.90;;;;;;;15.84;100.00;97585.97;5070042;28;20477;-75
2023/06/09 00:55:30;;;;;;;1999.90;999.90;;;;;;;15.74;100.00;97580.84;5070250;28;20036;-75
2023/06/09 00:57:56;;;;;;;1999.90;999.90;;;;;;;15.82;100.00;97582.72;5070287;28;20060;-75
2023/06/09 01:00:27;;;;;;;1999.90;999.90;;;;;;;15.80;100.00;97576.75;5070976;28;20107;-76
2023/06/09 01:03:00;;;;;;;1999.90;999.90;;;;;;;15.72;100.00;97571.31;5073444;28;20028;-76
2023/06/09 01:05:38;;;;;;;1999.90;999.90;;;;;;;15.77;100.00;97576.59;5055426;28;20032;-75
2023/06/09 01:08:28;;;;;;;1999.90;999.90;;;;;;;15.70;100.00;97579.91;5073669;28;20032;-76
2023/06/09 01:11:15;;;;;;;1999.90;999.90;;;;;;;15.61;100.00;97584.69;5054956;28;20044;-76
2023/06/09 01:13:59;;;;;;;1999.90;999.90;;;;;;;15.50;100.00;97577.97;5074392;28;20119;-76
2023/06/09 01:16:57;;;;;;;1999.90;999.90;;;;;;;15.51;100.00;97579.56;5080361;28;20025;-75
2023/06/09 01:19:31;;;;;;;1999.90;999.90;;;;;;;15.42;100.00;97563.09;5073297;28;20032;-75
2023/06/09 01:22:02;;;;;;;1999.90;999.90;;;;;;;15.50;100.00;97561.44;5073308;28;20028;-73
2023/06/09 01:25:04;;;;;;;1999.90;999.90;;;;;;;15.45;100.00;97567.09;5055253;28;20056;-74
2023/06/09 01:27:32;;;;;;;1999.90;999.90;;;;;;;15.50;100.00;97570.53;5073391;28;20024;-74
2023/06/09 01:29:58;;;;;;;1999.90;999.90;;;;;;;15.52;100.00;97557.19;5072988;28;20020;-75
2023/06/09 01:32:25;;;;;;;1999.90;999.90;;;;;;;15.57;100.00;97558.94;5054882;28;20032;-73
2023/06/09 01:34:53;;;;;;;1999.90;999.90;;;;;;;15.41;100.00;97544.91;5072898;28;20036;-74
2023/06/09 01:37:18;;;;;;;1999.90;999.90;;;;;;;15.35;100.00;97549.03;5054759;28;20028;-76
2023/06/09 01:39:46;;;;;;;1999.90;999.90;;;;;;;15.32;100.00;97557.16;5072757;28;20091;-75
2023/06/09 01:42:11;;;;;;;1999.90;999.90;;;;;;;15.31;100.00;97545.34;5072901;28;20032;-75
2023/06/09 01:44:37;;;;;;;1999.90;999.90;;;;;;;15.21;100.00;97547.69;5072993;28;20058;-75
2023/06/09 01:47:02;;;;;;;1999.90;999.90;;;;;;;15.09;100.00;97545.66;5063106;28;20126;-75
2023/06/09 01:49:45;;;;;;;1999.90;999.90;;;;;;;15.12;100.00;97544.19;5072628;28;20025;-76
2023/06/09 01:52:24;;;;;;;1999.90;999.90;;;;;;;15.10;100.00;97532.72;5072410;28;20170;-75
2023/06/09 01:54:57;;;;;;;1999.90;999.90;;;;;;;15.00;100.00;97555.94;5072829;28;20028;-75
2023/06/09 01:57:32;;;;;;;1999.90;999.90;;;;;;;14.95;100.00;97545.91;5072946;28;20033;-75
2023/06/09 02:00:00;;;;;;;1999.90;999.90;;;;;;;15.00;100.00;97556.72;5071419;28;20044;-75
2023/06/09 02:02:28;;;;;;;1999.90;999.90;;;;;;;14.97;100.00;97553.84;5071964;28;20067;-77
2023/06/09 02:04:55;;;;;;;1999.90;999.90;;;;;;;14.88;100.00;97550.31;5072271;28;20036;-75
2023/06/09 02:07:21;;;;;;;1999.90;999.90;;;;;;;14.97;100.00;97551.88;5071898;28;20036;-76
2023/06/09 02:09:47;;;;;;;1999.90;999.90;;;;;;;14.97;100.00;97540.84;5070816;28;20025;-74
2023/06/09 02:12:12;;;;;;;1999.90;999.90;;;;;;;15.07;100.00;97549.91;5070621;28;20035;-75
2023/06/09 02:14:39;;;;;;;1999.90;999.90;;;;;;;14.96;100.00;97544.78;5072367;28;20485;-75
2023/06/09 02:17:05;;;;;;;1999.90;999.90;;;;;;;15.03;100.00;97550.53;5070591;28;20551;-75
2023/06/09 02:19:37;;;;;;;1999.90;999.90;;;;;;;15.00;100.00;97533.91;5071918;28;20020;-75
2023/06/09 02:22:03;;;;;;;1999.90;999.90;;;;;;;15.08;100.00;97534.97;5071954;28;20029;-74
2023/06/09 02:24:28;;;;;;;1999.90;999.90;;;;;;;15.14;100.00;97541.91;5070771;28;20025;-73
2023/06/09 02:26:54;;;;;;;1999.90;999.90;;;;;;;15.21;100.00;97542.19;5072377;28;20016;-75
2023/06/09 02:29:20;;;;;;;1999.90;999.90;;;;;;;15.24;100.00;97544.25;5070481;28;20028;-75
2023/06/09 02:31:45;;;;;;;1999.90;999.90;;;;;;;15.22;100.00;97532.78;5071737;28;20489;-74
2023/06/09 02:34:11;;;;;;;1999.90;999.90;;;;;;;15.26;100.00;97531.75;5071396;28;20108;-73
2023/06/09 02:36:37;;;;;;;1999.90;999.90;;;;;;;15.20;100.00;97535.84;5083405;28;20031;-75
2023/06/09 02:39:03;;;;;;;1999.90;999.90;;;;;;;15.28;100.00;97531.44;5090674;28;20445;-74
2023/06/09 02:41:29;;;;;;;1999.90;999.90;;;;;;;15.26;100.00;97536.44;5071930;28;20107;-74
2023/06/09 02:43:54;;;;;;;1999.90;999.90;;;;;;;15.27;100.00;97538.88;5083273;28;20124;-75
2023/06/09 02:46:22;;;;;;;1999.90;999.90;;;;;;;15.27;100.00;97527.06;5083772;28;20406;-73
2023/06/09 02:48:48;;;;;;;1999.90;999.90;;;;;;;15.15;100.00;97529.75;5070919;28;20507;-75
2023/06/09 02:51:13;;;;;;;1999.90;999.90;;;;;;;15.08;100.00;97518.44;5053001;28;20032;-73
2023/06/09 02:53:38;;;;;;;1999.90;999.90;;;;;;;14.98;100.00;97534.22;5051993;28;20037;-75
2023/06/09 02:56:04;;;;;;;1999.90;999.90;;;;;;;14.96;100.00;97546.72;5051152;28;20544;-73
2023/06/09 02:58:29;;;;;;;1999.90;999.90;;;;;;;14.99;100.00;97540.53;5051037;28;20493;-74
2023/06/09 03:00:55;;;;;;;1999.90;999.90;;;;;;;14.95;100.00;97539.59;5050418;28;20501;-73
2023/06/09 03:03:20;;;;;;;1999.90;999.90;;;;;;;15.08;100.00;97543.22;5032818;28;20029;-75
2023/06/09 03:05:46;;;;;;;1999.90;999.90;;;;;;;15.05;100.00;97543.91;5032626;28;20059;-74
2023/06/09 03:08:11;;;;;;;1999.90;999.90;;;;;;;15.03;100.00;97545.03;5032927;28;20112;-74
2023/06/09 03:10:37;;;;;;;1999.90;999.90;;;;;;;15.11;100.00;97523.28;5050788;28;20041;-75
2023/06/09 03:13:02;;;;;;;1999.90;999.90;;;;;;;15.12;100.00;97536.72;5032759;28;20565;-72
2023/06/09 03:15:28;;;;;;;1999.90;999.90;;;;;;;15.19;100.00;97553.50;5033086;28;20021;-75
2023/06/09 03:17:53;;;;;;;1999.90;999.90;;;;;;;15.19;100.00;97550.75;5051008;28;20036;-75
2023/06/09 03:20:19;;;;;;;1999.90;999.90;;;;;;;15.10;100.00;97539.00;5050527;28;20029;-75
2023/06/09 03:22:45;;;;;;;1999.90;999.90;;;;;;;15.18;100.00;97542.84;5052885;28;20104;-76
2023/06/09 03:25:11;;;;;;;1999.90;999.90;;;;;;;15.10;100.00;97540.97;5057481;28;20025;-75
2023/06/09 03:27:37;;;;;;;1999.90;999.90;;;;;;;15.15;100.00;97546.28;5033169;28;20045;-75
2023/06/09 03:30:03;;;;;;;1999.90;999.90;;;;;;;15.15;100.00;97557.28;5067768;28;20118;-74
2023/06/09 03:32:28;;;;;;;1999.90;999.90;;;;;;;15.16;100.00;97556.16;5052408;28;20546;-75
2023/06/09 03:34:55;;;;;;;1999.90;999.90;;;;;;;15.06;100.00;97554.59;5052362;28;20033;-75
2023/06/09 03:37:20;;;;;;;1999.90;999.90;;;;;;;15.03;100.00;97555.28;5070142;28;20495;-74
2023/06/09 03:39:46;;;;;;;1999.90;999.90;;;;;;;14.98;100.00;97558.19;5070539;28;20033;-74
2023/06/09 03:42:11;;;;;;;1999.90;999.90;;;;;;;14.91;100.00;97553.22;5070302;28;20468;-73
2023/06/09 03:44:37;;;;;;;1999.90;999.90;;;;;;;15.03;100.00;97571.81;5070197;28;20078;-74
2023/06/09 03:47:02;;;;;;;1999.90;999.90;;;;;;;15.16;100.00;97569.94;5072170;28;20768;-76
2023/06/09 03:49:27;;;;;;;1999.90;999.90;;;;;;;14.97;100.00;97573.91;5052216;28;20043;-75
2023/06/09 03:51:53;;;;;;;1999.90;999.90;;;;;;;14.73;100.00;97573.72;5051974;28;20119;-75
2023/06/09 03:54:18;;;;;;;1999.90;999.90;;;;;;;14.57;100.00;97580.94;5052051;28;20128;-76
2023/06/09 03:56:43;;;;;;;1999.90;999.90;;;;;;;14.51;100.00;97584.19;5052115;28;20127;-73
2023/06/09 03:59:09;;;;;;;1999.90;999.90;;;;;;;14.56;100.00;97581.28;5070576;28;20025;-73
2023/06/09 04:01:34;;;;;;;1999.90;999.90;;;;;;;14.56;100.00;97578.53;5070021;28;20032;-74
2023/06/09 04:04:00;;;;;;;1999.90;999.90;;;;;;;14.50;100.00;97577.09;5071521;28;20024;-73
2023/06/09 04:06:26;;;;;;;1999.90;999.90;;;;;;;14.47;100.00;97581.31;5069909;28;20036;-74
2023/06/09 04:08:51;;;;;;;1999.90;999.90;;;;;;;14.47;100.00;97587.59;5070081;28;20102;-73
2023/06/09 04:11:16;;;;;;;1999.90;999.90;;;;;;;14.45;100.00;97589.06;5070251;28;20071;-73
2023/06/09 04:13:42;;;;;;;1999.90;999.90;;;;;;;14.39;100.00;97593.16;5048268;28;20175;-73
2023/06/09 04:16:07;;;;;;;1999.90;999.90;;;;;;;14.61;100.00;97592.91;5049849;28;20067;-74
2023/06/09 04:18:32;;;;;;;1999.90;999.90;;;;;;;14.83;100.00;97592.63;5049677;28;20483;-74
2023/06/09 04:20:58;;;;;;;1999.90;999.90;;;;;;;14.68;100.00;97595.16;5049742;28;20025;-73
2023/06/09 04:23:27;;;;;;;1999.90;999.90;;;;;;;14.68;100.00;97584.13;5049774;28;20067;-73
2023/06/09 04:25:53;;;;;;;1999.90;999.90;;;;;;;14.89;100.00;97583.03;5049892;28;20058;-73
2023/06/09 04:28:19;;;;;;;1999.90;999.90;;;;;;;14.80;100.00;97586.97;5053626;28;20056;-73
2023/06/09 04:30:44;;;;;;;1999.90;999.90;;;;;;;14.72;100.00;97583.13;5069623;28;20500;-73
2023/06/09 04:33:09;;;;;;;1999.90;999.90;;;;;;;14.82;100.00;97585.50;5069830;28;20025;-74
2023/06/09 04:35:35;;;;;;;1999.90;999.90;;;;;;;14.91;100.00;97596.50;5071385;28;20469;-73
2023/06/09 04:38:01;;;;;;;1999.90;999.90;;;;;;;15.02;100.00;97593.03;5073593;28;20100;-73
2023/06/09 04:40:29;;;;;;;1999.90;999.90;;;;;;;15.14;100.00;97592.28;5055527;28;20110;-73
2023/06/09 04:42:59;;;;;;;1999.90;999.90;;;;;;;15.33;100.00;97597.34;5073691;28;20112;-73
2023/06/09 04:45:27;;;;;;;1999.90;999.90;;;;;;;15.35;100.00;97589.56;5055676;28;20059;-74
2023/06/09 04:47:57;;;;;;;1999.90;999.90;;;;;;;15.48;100.00;97594.84;5061424;28;20160;-74
2023/06/09 04:50:22;;;;;;;1999.90;999.90;;;;;;;15.49;100.00;97587.38;5071116;28;20078;-74
2023/06/09 04:52:48;;;;;;;1999.90;999.90;;;;;;;15.63;100.00;97593.41;5072123;28;20028;-73
2023/06/09 04:55:14;;;;;;;1999.90;999.90;;;;;;;15.64;100.00;97589.53;5072409;28;20033;-73
2023/06/09 04:57:40;;;;;;;1999.90;999.90;;;;;;;15.61;100.00;97590.19;5071561;28;20028;-74
2023/06/09 05:00:07;;;;;;;1999.90;999.90;;;;;;;15.51;100.00;97609.91;5072544;28;20035;-75
2023/06/09 05:02:33;;;;;;;1999.90;999.90;;;;;;;15.38;100.00;97606.22;5054243;28;20025;-74
2023/06/09 05:04:59;;;;;;;1999.90;999.90;;;;;;;15.56;100.00;97597.88;5069859;28;20028;-73
2023/06/09 05:07:24;;;;;;;1999.90;999.90;;;;;;;15.56;100.00;97604.22;5071086;28;20016;-74
2023/06/09 05:09:49;;;;;;;1999.90;999.90;;;;;;;15.78;100.00;97598.34;5072538;28;20426;-73
2023/06/09 05:12:15;;;;;;;1999.90;999.90;;;;;;;15.97;100.00;97606.94;5072001;28;20036;-73
2023/06/09 05:14:42;;;;;;;1999.90;999.90;;;;;;;16.08;100.00;97619.16;5054120;28;20111;-73
2023/06/09 05:17:07;;;;;;;1999.90;999.90;;;;;;;16.20;100.00;97623.09;5053878;28;20078;-73
2023/06/09 05:19:32;;;;;;;1999.90;999.90;;;;;;;16.35;100.00;97616.94;5054217;28;20024;-73
2023/06/09 05:21:57;;;;;;;1999.90;999.90;;;;;;;16.45;100.00;97614.53;5072128;28;20024;-73
2023/06/09 05:24:23;;;;;;;1999.90;999.90;;;;;;;16.64;100.00;97621.50;5072316;28;20038;-73
2023/06/09 05:26:48;;;;;;;1999.90;999.90;;;;;;;16.91;100.00;97624.44;5060704;28;20412;-74
2023/06/09 05:29:13;;;;;;;1999.90;999.90;;;;;;;16.98;100.00;97627.41;5062260;28;20541;-74
2023/06/09 05:31:39;;;;;;;1999.90;999.90;;;;;;;17.30;100.00;97614.63;5045667;28;20033;-75
2023/06/09 05:34:04;;;;;;;1999.90;999.90;;;;;;;17.59;100.00;97630.19;5059931;28;20029;-74
2023/06/09 05:36:30;;;;;;;1999.90;999.90;;;;;;;17.92;100.00;97629.97;5059507;28;20021;-75
2023/06/09 05:38:55;;;;;;;1999.90;999.90;;;;;;;18.00;100.00;97632.59;5056585;28;20099;-75
2023/06/09 05:41:20;;;;;;;1999.90;999.90;;;;;;;18.02;100.00;97646.91;5053512;28;20390;-74
2023/06/09 05:43:45;;;;;;;1999.90;999.90;;;;;;;18.10;100.00;97632.13;5061092;28;20041;-74
2023/06/09 05:46:11;;;;;;;1999.90;999.90;;;;;;;18.64;100.00;97651.81;5053815;28;20060;-74
2023/06/09 05:48:36;;;;;;;1999.90;999.90;;;;;;;19.16;100.00;97650.78;5038171;28;20035;-75
2023/06/09 05:51:01;;;;;;;1999.90;999.90;;;;;;;19.32;100.00;97659.09;5036772;28;20760;-75
2023/06/09 05:53:27;;;;;;;1999.90;999.90;;;;;;;19.69;100.00;97664.00;5071894;28;20146;-74
2023/06/09 05:55:53;;;;;;;1999.90;999.90;;;;;;;19.93;100.00;97662.91;5070580;28;20055;-74
2023/06/09 05:58:19;;;;;;;1999.90;999.90;;;;;;;19.48;100.00;97669.06;5070964;28;20012;-75
2023/06/09 06:00:44;;;;;;;1999.90;999.90;;;;;;;19.55;100.00;97673.94;5054145;28;20505;-75
2023/06/09 06:03:10;;;;;;;1999.90;999.90;;;;;;;19.86;100.00;97665.53;5071570;28;20028;-73
2023/06/09 06:05:36;;;;;;;1999.90;999.90;;;;;;;19.74;100.00;97660.13;5048492;28;20028;-73
2023/06/09 06:08:01;;;;;;;1999.90;999.90;;;;;;;19.83;100.00;97663.50;5060432;28;20025;-73
2023/06/09 06:10:27;;;;;;;1999.90;999.90;;;;;;;19.41;100.00;97663.31;5056963;28;20016;-72
2023/06/09 06:12:53;;;;;;;1999.90;999.90;;;;;;;19.10;100.00;97669.69;5059167;28;20040;-73
2023/06/09 06:15:19;;;;;;;1999.90;999.90;;;;;;;19.36;100.00;97668.31;5061293;28;20105;-74
2023/06/09 06:17:44;;;;;;;1999.90;999.90;;;;;;;19.98;100.00;97661.84;5058476;28;20432;-73
2023/06/09 06:20:11;;;;;;;1999.90;999.90;;;;;;;20.33;100.00;97675.72;5060284;28;20393;-73
2023/06/09 06:22:37;;;;;;;1999.90;999.90;;;;;;;20.29;100.00;97675.63;5053645;28;20028;-73
2023/06/09 06:25:03;;;;;;;1999.90;999.90;;;;;;;19.73;100.00;97677.94;5058450;28;20206;-73
2023/06/09 06:27:28;;;;;;;1999.90;999.90;;;;;;;19.46;100.00;97673.31;5048167;28;20020;-73
2023/06/09 06:29:54;;;;;;;1999.90;999.90;;;;;;;19.55;100.00;97669.19;5071364;28;20032;-74
2023/06/09 06:32:19;;;;;;;1999.90;999.90;;;;;;;19.73;100.00;97670.41;5064140;28;20444;-74
2023/06/09 06:34:45;;;;;;;1999.90;999.90;;;;;;;19.83;100.00;97669.03;5033141;28;20140;-73
2023/06/09 06:37:11;;;;;;;1999.90;999.90;;;;;;;20.00;100.00;97676.97;5070243;28;20599;-74
2023/06/09 06:39:37;;;;;;;1999.90;999.90;;;;;;;20.11;100.00;97669.66;5053238;28;20065;-74
2023/06/09 06:42:03;;;;;;;1999.90;999.90;;;;;;;20.35;100.00;97660.28;5067415;28;20393;-73
2023/06/09 06:44:28;;;;;;;1999.90;999.90;;;;;;;20.20;100.00;97667.47;5052487;28;20028;-74
2023/06/09 06:46:53;;;;;;;1999.90;999.90;;;;;;;20.07;100.00;97674.34;5071023;28;20448;-73
2023/06/09 06:49:18;;;;;;;1999.90;999.90;;;;;;;20.39;100.00;97657.56;5070867;28;20028;-73
2023/06/09 06:51:44;;;;;;;1999.90;999.90;;;;;;;20.42;100.00;97657.66;5070906;28;20538;-73
2023/06/09 06:54:10;;;;;;;1999.90;999.90;;;;;;;20.37;100.00;97651.56;5054823;28;20087;-74
2023/06/09 06:56:36;;;;;;;1999.90;999.90;;;;;;;20.56;100.00;97657.09;5050705;28;20048;-73
2023/06/09 06:59:01;;;;;;;1999.90;999.90;;;;;;;20.67;100.00;97653.38;5032723;28;20115;-72
2023/06/09 07:01:28;;;;;;;1999.90;999.90;;;;;;;20.72;100.00;97660.59;5050898;28;20029;-73
2023/06/09 07:03:55;;;;;;;1999.90;999.90;;;;;;;21.02;100.00;97657.97;5051092;28;20029;-74
2023/06/09 07:06:20;;;;;;;1999.90;999.90;;;;;;;20.93;100.00;97651.81;5032916;28;20379;-74
2023/06/09 07:08:46;;;;;;;1999.90;999.90;;;;;;;20.46;100.00;97657.69;5032726;28;20025;-75
2023/06/09 07:11:11;;;;;;;1999.90;999.90;;;;;;;20.61;100.00;97654.81;5032675;28;20032;-73
2023/06/09 07:13:36;;;;;;;1999.90;999.90;;;;;;;21.16;100.00;97664.59;5050915;28;20021;-72
2023/06/09 07:16:02;;;;;;;1999.90;999.90;;;;;;;21.15;100.00;97662.19;5050710;28;20025;-73
2023/06/09 07:18:28;;;;;;;1999.90;999.90;;;;;;;21.20;100.00;97659.91;5050611;28;20484;-74
2023/06/09 07:20:53;;;;;;;1999.90;999.90;;;;;;;21.17;100.00;97651.50;5054144;28;20025;-72
2023/06/09 07:23:19;;;;;;;1999.90;999.90;;;;;;;21.18;100.00;97656.69;5069332;28;20111;-72
2023/06/09 07:25:44;;;;;;;1999.90;999.90;;;;;;;21.20;100.00;97654.34;5070331;28;20539;-72
2023/06/09 07:28:10;;;;;;;1999.90;999.90;;;;;;;21.33;100.00;97664.09;5045378;28;20098;-71
2023/06/09 07:30:36;;;;;;;1999.90;999.90;;;;;;;21.33;100.00;97661.28;5049924;28;20024;-71
2023/06/09 07:33:01;;;;;;;1999.90;999.90;;;;;;;21.32;100.00;97661.69;5052250;28;21865;-75
2023/06/09 07:35:28;;;;;;;1999.90;999.90;;;;;;;21.28;100.00;97660.81;5070467;28;20063;-74
2023/06/09 07:37:53;;;;;;;1999.90;999.90;;;;;;;21.30;100.00;97661.28;5046665;28;20017;-74
2023/06/09 07:40:19;;;;;;;1999.90;999.90;;;;;;;21.29;100.00;97668.81;5066713;28;20547;-78
2023/06/09 07:42:44;;;;;;;1999.90;999.90;;;;;;;21.24;100.00;97659.94;5046332;28;20520;-74
2023/06/09 07:45:10;;;;;;;1999.90;999.90;;;;;;;21.15;100.00;97654.63;5034570;28;20078;-74
2023/06/09 07:47:36;;;;;;;1999.90;999.90;;;;;;;21.15;100.00;97660.22;5067292;28;20037;-74
2023/06/09 07:50:01;;;;;;;1999.90;999.90;;;;;;;21.18;100.00;97656.69;5070157;28;20040;-74
2023/06/09 07:52:26;;;;;;;1999.90;999.90;;;;;;;21.51;100.00;97658.00;5068708;28;20036;-74
2023/06/09 07:54:52;;;;;;;1999.90;999.90;;;;;;;21.72;100.00;97664.69;5070082;28;20032;-73
2023/06/09 07:57:17;;;;;;;1999.90;999.90;;;;;;;22.05;100.00;97649.28;5069547;28;20031;-73
2023/06/09 07:59:45;;;;;;;1999.90;999.90;;;;;;;22.35;100.00;97664.81;5070454;28;20071;-75
2023/06/09 08:02:10;;;;;;;1999.90;999.90;;;;;;;22.88;100.00;97659.03;5069009;28;20140;-74
2023/06/09 08:04:37;;;;;;;1999.90;999.90;;;;;;;23.21;100.00;97644.22;5068748;28;20154;-75
2023/06/09 08:07:03;;;;;;;1999.90;999.90;;;;;;;23.57;98.40;97640.53;5070262;28;20086;-74
2023/06/09 08:09:28;;;;;;;1999.90;999.90;;;;;;;23.69;93.10;97653.38;5076969;28;20043;-74
2023/06/09 08:11:54;;;;;;;1999.90;999.90;;;;;;;24.01;89.94;97657.19;5091829;28;20055;-75
2023/06/09 08:14:19;;;;;;;1999.90;999.90;;;;;;;24.00;87.69;97652.75;5092713;28;20027;-75
2023/06/09 08:16:45;;;;;;;1999.90;999.90;;;;;;;24.04;89.46;97670.38;5092839;28;20115;-72
2023/06/09 08:19:11;;;;;;;1999.90;999.90;;;;;;;23.92;92.33;97656.72;5094163;28;20028;-74
2023/06/09 08:21:45;;;;;;;1999.90;999.90;;;;;;;24.44;87.79;97644.22;5093463;28;20039;-73
2023/06/09 08:24:11;;;;;;;1999.90;999.90;;;;;;;24.70;84.95;97649.50;5092919;28;20739;-73
2023/06/09 08:26:37;;;;;;;1999.90;999.90;;;;;;;24.63;85.24;97651.47;5094005;28;20034;-73
2023/06/09 08:29:03;;;;;;;1999.90;999.90;;;;;;;24.99;83.92;97650.41;5094322;28;20028;-73
2023/06/09 08:31:30;;;;;;;1999.90;999.90;;;;;;;25.21;81.21;97649.22;5093927;28;20173;-73
2023/06/09 08:33:55;;;;;;;1999.90;999.90;;;;;;;25.12;79.86;97653.63;5093825;28;20392;-74
2023/06/09 08:36:21;;;;;;;1999.90;999.90;;;;;;;25.16;79.80;97649.59;5093693;28;20103;-73
2023/06/09 08:38:47;;;;;;;1999.90;999.90;;;;;;;24.90;81.56;97650.75;5093772;28;20031;-73
2023/06/09 08:41:14;;;;;;;1999.90;999.90;;;;;;;24.96;81.01;97640.00;5091324;28;20020;-73
2023/06/09 08:43:40;;;;;;;1999.90;999.90;;;;;;;25.29;80.37;97648.03;5094129;28;20027;-73
2023/06/09 08:46:09;;;;;;;1999.90;999.90;;;;;;;25.24;78.99;97634.44;5091199;28;20028;-73
2023/06/09 08:48:38;;;;;;;1999.90;999.90;;;;;;;25.33;77.16;97629.22;5073089;28;20036;-74
2023/06/09 08:51:03;;;;;;;1999.90;999.90;;;;;;;25.16;77.74;97616.00;5073034;28;20635;-75
2023/06/09 08:53:30;;;;;;;1999.90;999.90;;;;;;;25.22;77.73;97622.00;5055396;28;20103;-73
2023/06/09 08:55:55;;;;;;;1999.90;999.90;;;;;;;25.17;77.80;97626.03;5073288;28;20389;-74
2023/06/09 08:58:24;;;;;;;1999.90;999.90;;;;;;;25.27;76.75;97619.63;5055185;28;20033;-74
2023/06/09 09:00:50;;;;;;;1999.90;999.90;;;;;;;25.36;75.70;97622.81;5073209;28;20025;-75
2023/06/09 09:03:16;;;;;;;1999.90;999.90;;;;;;;25.61;74.49;97620.03;5072741;28;20071;-75
2023/06/09 09:05:43;;;;;;;1999.90;999.90;;;;;;;25.93;73.87;97611.56;5058294;28;20021;-74
2023/06/09 09:08:08;;;;;;;1999.90;999.90;;;;;;;26.19;72.25;97613.13;5035275;28;20117;-74
2023/06/09 09:10:34;;;;;;;1999.90;999.90;;;;;;;26.14;70.58;97614.28;5053067;28;20103;-74
2023/06/09 09:12:59;;;;;;;1999.90;999.90;;;;;;;26.13;68.78;97607.06;5052971;28;20025;-75
2023/06/09 09:15:27;;;;;;;1999.90;999.90;;;;;;;25.79;70.92;97612.38;5034994;28;20087;-74
2023/06/09 09:17:52;;;;;;;1999.90;999.90;;;;;;;25.40;71.31;97609.63;5052513;28;20421;-74
2023/06/09 09:20:19;;;;;;;1999.90;999.90;;;;;;;25.40;72.89;97595.63;5052350;28;20025;-74
2023/06/09 09:22:48;;;;;;;1999.90;999.90;;;;;;;25.65;70.95;97606.81;5052192;28;20021;-73
2023/06/09 09:25:27;;;;;;;1999.90;999.90;;;;;;;25.94;69.96;97599.91;5052982;28;20040;-73
2023/06/09 09:28:00;;;;;;;1999.90;999.90;;;;;;;26.16;69.19;97609.09;5034275;28;20025;-75
2023/06/09 09:30:41;;;;;;;1999.90;999.90;;;;;;;26.12;65.63;97608.28;5034710;28;20496;-74
2023/06/09 09:33:09;;;;;;;1999.90;999.90;;;;;;;25.92;67.01;97615.56;5052538;28;20025;-73
2023/06/09 09:35:43;;;;;;;1999.90;999.90;;;;;;;25.79;66.70;97603.16;5034778;28;20024;-75
2023/06/09 09:38:14;;;;;;;1999.90;999.90;;;;;;;25.90;65.60;97613.16;5052320;28;20033;-74
2023/06/09 09:40:47;;;;;;;1999.90;999.90;;;;;;;25.84;64.31;97609.19;5052881;28;20550;-73
2023/06/09 09:43:14;;;;;;;1999.90;999.90;;;;;;;25.71;65.02;97598.78;5035244;28;20571;-77
2023/06/09 09:45:42;;;;;;;1999.90;999.90;;;;;;;25.87;65.70;97596.34;5053728;28;20021;-74
2023/06/09 09:48:09;;;;;;;1999.90;999.90;;;;;;;25.98;65.39;97592.31;5057430;28;20103;-82
2023/06/09 09:50:38;;;;;;;1999.90;999.90;;;;;;;25.93;64.94;97595.53;5055238;28;20062;-74
2023/06/09 09:53:05;;;;;;;1999.90;999.90;;;;;;;25.92;65.05;97584.72;5052240;28;20035;-74
2023/06/09 09:55:31;;;;;;;1999.90;999.90;;;;;;;25.90;65.29;97585.13;5056740;28;20093;-74
2023/06/09 09:57:59;;;;;;;1999.90;999.90;;;;;;;25.98;65.39;97585.91;5053309;28;20173;-75
2023/06/09 10:00:26;;;;;;;1999.90;999.90;;;;;;;26.31;66.28;97573.38;5065875;28;20031;-74
2023/06/09 10:02:56;;;;;;;1999.90;999.90;;;;;;;26.53;65.98;97575.63;5069738;28;20074;-75
2023/06/09 10:05:23;;;;;;;1999.90;999.90;;;;;;;26.80;63.85;97583.50;5073389;28;20389;-74
2023/06/09 10:07:54;;;;;;;1999.90;999.90;;;;;;;26.95;63.44;97576.59;5091589;28;20423;-73
2023/06/09 10:10:20;;;;;;;1999.90;999.90;;;;;;;27.18;61.89;97573.22;5091498;28;20024;-74
2023/06/09 10:12:46;;;;;;;1999.90;999.90;;;;;;;27.05;62.21;97567.31;5080054;28;20141;-74
2023/06/09 10:15:13;;;;;;;1999.90;999.90;;;;;;;27.19;62.82;97567.19;5053266;28;20029;-75
2023/06/09 10:17:42;;;;;;;1999.90;999.90;;;;;;;27.30;62.25;97567.09;5051000;28;20021;-72
2023/06/09 10:20:09;;;;;;;1999.90;999.90;;;;;;;27.35;63.21;97570.25;5071062;28;20033;-73
2023/06/09 10:22:36;;;;;;;1999.90;999.90;;;;;;;27.35;63.27;97555.41;5070739;28;20150;-73
2023/06/09 10:25:03;;;;;;;1999.90;999.90;;;;;;;27.33;64.07;97555.03;5071582;28;20029;-74
2023/06/09 10:27:30;;;;;;;1999.90;999.90;;;;;;;27.43;63.95;97554.97;5071203;28;20084;-73
2023/06/09 10:29:56;;;;;;;1999.90;999.90;;;;;;;27.44;61.00;97545.28;5047289;28;20053;-74
2023/06/09 10:32:26;;;;;;;1999.90;999.90;;;;;;;27.47;62.70;97544.47;5033501;28;20041;-72
2023/06/09 10:34:53;;;;;;;1999.90;999.90;;;;;;;27.31;62.58;97547.03;5051733;28;20028;-73
2023/06/09 10:37:33;;;;;;;1999.90;999.90;;;;;;;27.28;61.83;97549.88;5051196;28;20204;-73
2023/06/09 10:40:17;;;;;;;1999.90;999.90;;;;;;;27.28;62.43;97536.63;5047087;28;20430;-72
2023/06/09 10:43:29;;;;;;;1999.90;999.90;;;;;;;27.29;62.44;97535.38;5048881;28;20025;-73
2023/06/09 10:45:56;;;;;;;1999.90;999.90;;;;;;;27.18;63.16;97517.84;5013508;28;20112;-73
2023/06/09 10:48:45;;;;;;;1999.90;999.90;;;;;;;27.08;63.77;97518.72;5050261;28;20074;-74
2023/06/09 10:51:29;;;;;;;1999.90;999.90;;;;;;;27.08;62.30;97515.94;5056246;28;20064;-73